Time;durP1;ratioP1;P1;durP2;ratioP2;P2;SDS_P1;SDS_P2;PMS_P1;PMS_P2;Temp;Humidity;BMP_temperature;BMP_pressure;BME280_temperature;BME280_humidity;BME280_pressure;Samples;Min_cycle;Max_cycle;Signal;HPM_P1;HPM_P2
2022/11/02 00:01:03;;;;;;;9.65;2.65;;;9.30;99.90;;;;;;5052271;28;20196;-63
2022/11/02 00:03:31;;;;;;;6.32;3.13;;;9.40;99.90;;;;;;5051208;28;20192;-65
2022/11/02 00:05:58;;;;;;;10.50;2.78;;;9.30;99.90;;;;;;5051640;28;20192;-65
2022/11/02 00:08:28;;;;;;;4.50;2.72;;;9.40;99.90;;;;;;5052966;28;20200;-65
2022/11/02 00:10:56;;;;;;;7.97;3.05;;;9.40;99.90;;;;;;5048482;28;20201;-64
2022/11/02 00:13:25;;;;;;;5.35;2.90;;;9.40;99.90;;;;;;5049898;28;20432;-65
2022/11/02 00:15:53;;;;;;;11.32;3.25;;;9.30;99.90;;;;;;5050734;28;20225;-65
2022/11/02 00:18:22;;;;;;;4.50;2.50;;;9.30;99.90;;;;;;5053856;28;20196;-65
2022/11/02 00:20:50;;;;;;;11.05;3.42;;;9.30;99.90;;;;;;5052844;28;20200;-65
2022/11/02 00:23:19;;;;;;;6.38;2.40;;;9.30;99.90;;;;;;5053421;28;20262;-65
2022/11/02 00:25:50;;;;;;;5.82;3.08;;;9.30;99.90;;;;;;5052770;28;20205;-64
2022/11/02 00:28:19;;;;;;;10.82;3.67;;;9.30;99.90;;;;;;5052939;28;20193;-64
2022/11/02 00:30:48;;;;;;;3.72;2.63;;;9.20;99.90;;;;;;5051486;28;20309;-65
2022/11/02 00:33:16;;;;;;;8.05;3.70;;;9.20;99.90;;;;;;5052900;28;20235;-65
2022/11/02 00:35:46;;;;;;;5.45;2.75;;;9.20;99.90;;;;;;5051999;28;20212;-64
2022/11/02 00:38:14;;;;;;;7.80;2.90;;;9.10;99.90;;;;;;5052377;28;20239;-64
2022/11/02 00:40:42;;;;;;;7.38;2.88;;;9.10;99.90;;;;;;5052030;28;20221;-64
2022/11/02 00:43:10;;;;;;;11.35;3.60;;;9.10;99.90;;;;;;5050865;28;20574;-65
2022/11/02 00:45:38;;;;;;;7.90;4.05;;;9.00;99.90;;;;;;5051560;28;20201;-65
2022/11/02 00:48:07;;;;;;;14.25;4.75;;;9.00;99.90;;;;;;5050535;28;20662;-65
2022/11/02 00:50:35;;;;;;;9.77;4.30;;;9.00;99.90;;;;;;5052056;28;20208;-64
2022/11/02 00:53:05;;;;;;;8.95;4.38;;;9.00;99.90;;;;;;5051147;28;20205;-64
2022/11/02 00:55:33;;;;;;;7.05;3.88;;;9.00;99.90;;;;;;5052055;28;20221;-65
2022/11/02 00:58:04;;;;;;;6.85;4.50;;;9.00;99.90;;;;;;5047767;28;20216;-65
2022/11/02 01:00:32;;;;;;;8.25;4.05;;;8.90;99.90;;;;;;5051070;28;20208;-64
2022/11/02 01:03:01;;;;;;;7.70;4.25;;;8.90;99.90;;;;;;5051087;28;20204;-65
2022/11/02 01:05:30;;;;;;;4.35;3.13;;;8.90;99.90;;;;;;5051103;28;20659;-65
2022/11/02 01:07:58;;;;;;;6.00;3.65;;;8.80;99.90;;;;;;5051507;28;20243;-65
2022/11/02 01:10:28;;;;;;;8.20;3.50;;;8.80;99.90;;;;;;5034363;28;20613;-65
2022/11/02 01:12:56;;;;;;;8.82;4.05;;;8.80;99.90;;;;;;5057012;28;20261;-65
2022/11/02 01:15:24;;;;;;;4.97;3.22;;;8.70;99.90;;;;;;5045615;28;20208;-65
2022/11/02 01:17:52;;;;;;;9.32;3.88;;;8.60;99.90;;;;;;5053060;28;20238;-65
2022/11/02 01:20:21;;;;;;;8.93;3.97;;;8.60;99.90;;;;;;5051882;28;20201;-65
2022/11/02 01:22:49;;;;;;;6.05;3.80;;;8.60;99.90;;;;;;5053115;28;20200;-65
2022/11/02 01:25:17;;;;;;;17.20;3.90;;;8.60;99.90;;;;;;5051643;28;20204;-65
2022/11/02 01:27:47;;;;;;;9.93;4.22;;;8.60;99.90;;;;;;5053441;28;20203;-65
2022/11/02 01:30:15;;;;;;;7.28;3.83;;;8.60;99.90;;;;;;5051508;28;20627;-65
2022/11/02 01:32:45;;;;;;;8.23;4.07;;;8.60;99.90;;;;;;5053242;28;20681;-65
2022/11/02 01:35:13;;;;;;;9.27;4.55;;;8.60;99.90;;;;;;5051408;28;20213;-65
2022/11/02 01:37:41;;;;;;;9.57;4.10;;;8.70;99.90;;;;;;5052645;28;20209;-65
2022/11/02 01:40:10;;;;;;;9.70;4.80;;;8.70;99.90;;;;;;5051760;28;20200;-65
2022/11/02 01:42:39;;;;;;;5.20;3.90;;;8.80;99.90;;;;;;5052534;28;20208;-65
2022/11/02 01:45:11;;;;;;;9.75;4.72;;;8.80;99.90;;;;;;5052426;28;20204;-66
2022/11/02 01:47:42;;;;;;;7.10;3.30;;;8.90;99.90;;;;;;5052390;28;20211;-65
2022/11/02 01:50:15;;;;;;;16.13;4.30;;;8.90;99.90;;;;;;5053971;28;20655;-65
2022/11/02 01:52:43;;;;;;;5.57;3.80;;;9.00;99.90;;;;;;5055985;28;20199;-65
2022/11/02 01:55:15;;;;;;;13.75;4.15;;;9.10;99.90;;;;;;5054859;28;20683;-65
2022/11/02 01:57:47;;;;;;;10.07;3.85;;;9.10;99.90;;;;;;5054477;28;20229;-65
2022/11/02 02:00:18;;;;;;;6.93;3.40;;;9.20;99.90;;;;;;5055776;28;20203;-65
2022/11/02 02:02:51;;;;;;;7.95;3.45;;;9.20;99.90;;;;;;5054673;28;20206;-66
2022/11/02 02:05:22;;;;;;;11.27;4.05;;;9.20;99.90;;;;;;5053809;28;20193;-65
2022/11/02 02:07:52;;;;;;;7.25;4.38;;;9.20;99.90;;;;;;5054713;28;20272;-65
2022/11/02 02:10:20;;;;;;;14.38;4.07;;;9.30;99.90;;;;;;5054811;28;20573;-65
2022/11/02 02:12:50;;;;;;;9.32;3.90;;;9.30;99.90;;;;;;5053728;28;20247;-65
2022/11/02 02:15:25;;;;;;;11.07;3.72;;;9.30;99.90;;;;;;5051305;28;20204;-66
2022/11/02 02:18:00;;;;;;;6.32;3.92;;;9.30;99.90;;;;;;5055835;28;20672;-66
2022/11/02 02:20:41;;;;;;;13.10;4.13;;;9.40;99.90;;;;;;5054960;28;20196;-65
2022/11/02 02:23:51;;;;;;;8.05;3.83;;;9.40;99.90;;;;;;5054371;28;20199;-65
2022/11/02 02:26:54;;;;;;;8.07;3.75;;;9.50;99.90;;;;;;5048603;28;20786;-65
2022/11/02 02:29:28;;;;;;;10.52;3.25;;;9.50;99.90;;;;;;5055940;28;20208;-66
2022/11/02 02:32:02;;;;;;;9.70;3.70;;;9.50;99.90;;;;;;5055522;28;20612;-65
2022/11/02 02:34:37;;;;;;;8.13;2.97;;;9.50;99.90;;;;;;5055760;28;20189;-65
2022/11/02 02:37:09;;;;;;;5.55;3.78;;;9.50;99.90;;;;;;5055572;28;20577;-66
2022/11/02 02:39:42;;;;;;;9.35;3.05;;;9.50;99.90;;;;;;5055662;28;20189;-66
2022/11/02 02:42:18;;;;;;;7.40;3.30;;;9.60;99.90;;;;;;5055621;28;20189;-65
2022/11/02 02:44:58;;;;;;;8.57;3.30;;;9.60;99.90;;;;;;5053772;28;20601;-65
2022/11/02 02:47:30;;;;;;;4.95;3.22;;;9.50;99.90;;;;;;5055090;28;20562;-65
2022/11/02 02:50:05;;;;;;;13.00;3.28;;;9.50;99.90;;;;;;5053675;28;20589;-66
2022/11/02 02:52:36;;;;;;;10.88;5.15;;;9.50;99.90;;;;;;5055088;28;20188;-65
2022/11/02 02:55:08;;;;;;;6.85;3.42;;;9.50;99.90;;;;;;5053371;28;20193;-65
2022/11/02 02:57:37;;;;;;;6.00;3.10;;;9.50;99.90;;;;;;5054806;28;20232;-65
2022/11/02 03:00:13;;;;;;;11.30;3.00;;;9.50;99.90;;;;;;5054019;28;20205;-67
2022/11/02 03:02:59;;;;;;;10.23;3.33;;;9.50;99.90;;;;;;5054179;28;20191;-64
2022/11/02 03:05:32;;;;;;;10.43;3.00;;;9.60;99.90;;;;;;5052553;28;20608;-64
2022/11/02 03:08:09;;;;;;;13.68;3.42;;;9.60;99.90;;;;;;5054097;28;20652;-65
2022/11/02 03:10:48;;;;;;;9.75;3.58;;;9.70;99.90;;;;;;5054771;28;20624;-66
2022/11/02 03:13:35;;;;;;;17.58;3.35;;;9.70;99.90;;;;;;5055324;28;20199;-66
2022/11/02 03:16:17;;;;;;;10.82;3.55;;;9.70;99.90;;;;;;5053493;28;20192;-65
2022/11/02 03:18:49;;;;;;;12.27;5.07;;;9.80;99.90;;;;;;5044517;28;20193;-64
2022/11/02 03:21:25;;;;;;;9.95;4.35;;;9.80;99.90;;;;;;5069393;28;20700;-65
2022/11/02 03:24:00;;;;;;;19.35;12.38;;;10.00;99.90;;;;;;5053344;28;20539;-65
2022/11/02 03:26:31;;;;;;;7.60;3.40;;;10.00;99.90;;;;;;5052416;28;20188;-65
2022/11/02 03:29:07;;;;;;;11.93;3.17;;;10.10;99.90;;;;;;5054191;28;20682;-65
2022/11/02 03:31:41;;;;;;;13.95;7.85;;;10.20;99.90;;;;;;5052351;28;20191;-65
2022/11/02 03:34:20;;;;;;;12.73;6.57;;;10.20;99.90;;;;;;5052843;28;20192;-65
2022/11/02 03:36:52;;;;;;;9.10;6.18;;;10.30;99.90;;;;;;5052945;28;20227;-66
2022/11/02 03:39:25;;;;;;;5.65;4.20;;;10.30;99.90;;;;;;5053026;28;20196;-65
2022/11/02 03:41:59;;;;;;;14.02;7.28;;;10.40;99.90;;;;;;5052696;28;20189;-65
2022/11/02 03:44:29;;;;;;;40.35;25.85;;;10.40;99.90;;;;;;5053126;28;20196;-66
2022/11/02 03:47:00;;;;;;;43.42;27.65;;;10.50;99.90;;;;;;5053912;28;20189;-66
2022/11/02 03:49:31;;;;;;;14.63;10.07;;;10.40;99.90;;;;;;5053763;28;20671;-66
2022/11/02 03:52:03;;;;;;;8.43;4.97;;;10.40;99.90;;;;;;5053176;28;20200;-66
2022/11/02 03:54:42;;;;;;;10.75;6.32;;;10.50;99.90;;;;;;5052848;28;20580;-66
2022/11/02 03:57:18;;;;;;;9.63;4.00;;;10.40;99.90;;;;;;5051592;28;20235;-66
2022/11/02 03:59:46;;;;;;;14.25;3.50;;;10.40;99.90;;;;;;5052653;28;20192;-66
2022/11/02 04:02:17;;;;;;;9.13;4.20;;;10.40;99.90;;;;;;5048671;28;20203;-65
2022/11/02 04:04:49;;;;;;;9.63;4.97;;;10.40;99.90;;;;;;5040616;28;20263;-65
2022/11/02 04:07:24;;;;;;;6.53;3.00;;;10.40;99.90;;;;;;5035409;28;20704;-65
2022/11/02 04:09:52;;;;;;;10.23;4.65;;;10.40;99.90;;;;;;5058350;28;20237;-65
2022/11/02 04:15:08;;;;;;;7.50;3.60;;;10.50;99.90;;;;;;5034042;28;20208;-66
2022/11/02 04:20:36;;;;;;;11.32;3.53;;;10.50;99.90;;;;;;4994872;28;20213;-66
2022/11/02 04:25:53;;;;;;;5.15;2.95;;;10.40;99.90;;;;;;5012862;28;20205;-66
2022/11/02 04:28:35;;;;;;;10.32;3.28;;;10.40;99.90;;;;;;5051746;28;20615;-66
2022/11/02 04:31:03;;;;;;;8.75;2.90;;;10.40;99.90;;;;;;5051836;28;20208;-66
2022/11/02 04:33:37;;;;;;;8.82;3.55;;;10.30;99.90;;;;;;5052139;28;20189;-66
2022/11/02 04:36:11;;;;;;;2.83;2.63;;;10.30;99.90;;;;;;5051826;28;20184;-66
2022/11/02 04:38:39;;;;;;;7.07;2.90;;;10.30;99.90;;;;;;5051608;28;20217;-66
2022/11/02 04:43:57;;;;;;;8.23;3.20;;;10.40;99.90;;;;;;5051419;28;20181;-66
2022/11/02 04:46:26;;;;;;;7.80;3.00;;;10.40;99.90;;;;;;5052007;28;20567;-66
2022/11/02 04:48:57;;;;;;;7.20;3.17;;;10.50;99.90;;;;;;5051130;28;20185;-66
2022/11/02 04:51:27;;;;;;;10.10;4.15;;;10.50;99.90;;;;;;5052592;28;20203;-66
2022/11/02 04:53:56;;;;;;;10.52;3.42;;;10.60;99.90;;;;;;5051957;28;20212;-66
2022/11/02 04:56:26;;;;;;;10.93;3.60;;;10.60;99.90;;;;;;5052032;28;20224;-66
2022/11/02 04:58:58;;;;;;;6.85;2.70;;;10.70;99.90;;;;;;5051857;28;20208;-67
2022/11/02 05:01:27;;;;;;;5.22;2.70;;;10.70;99.90;;;;;;5052076;28;20580;-66
2022/11/02 05:03:57;;;;;;;7.20;3.65;;;10.70;99.90;;;;;;5052023;28;20208;-66
2022/11/02 05:06:27;;;;;;;9.05;3.88;;;10.80;99.90;;;;;;5051405;28;20240;-66
2022/11/02 05:08:56;;;;;;;7.15;2.97;;;10.70;99.90;;;;;;5051849;28;20204;-66
2022/11/02 05:11:25;;;;;;;8.18;2.90;;;10.70;99.90;;;;;;5052069;28;20557;-66
2022/11/02 05:13:53;;;;;;;7.20;3.15;;;10.70;99.90;;;;;;5052929;28;20213;-66
2022/11/02 05:16:21;;;;;;;9.55;3.65;;;10.70;99.90;;;;;;5052447;28;20219;-66
2022/11/02 05:18:52;;;;;;;7.45;3.13;;;10.70;99.90;;;;;;5051265;28;20238;-66
2022/11/02 05:21:22;;;;;;;8.75;3.45;;;10.60;99.90;;;;;;5051976;28;20565;-66
2022/11/02 05:23:51;;;;;;;9.13;3.95;;;10.60;99.90;;;;;;5051046;28;20193;-66
2022/11/02 05:26:19;;;;;;;9.23;3.47;;;10.60;99.90;;;;;;5053008;28;20215;-64
2022/11/02 05:28:51;;;;;;;7.68;3.13;;;10.70;99.90;;;;;;5052222;28;20192;-66
2022/11/02 05:31:19;;;;;;;9.23;3.67;;;10.60;99.90;;;;;;5051840;28;20207;-66
2022/11/02 05:33:49;;;;;;;14.07;3.45;;;10.60;99.90;;;;;;5052932;28;20204;-66
2022/11/02 05:36:22;;;;;;;14.10;3.38;;;10.60;99.90;;;;;;5051293;28;20189;-66
2022/11/02 05:38:53;;;;;;;18.48;3.67;;;10.60;99.90;;;;;;5051184;28;20217;-66
2022/11/02 05:41:22;;;;;;;8.45;3.65;;;10.60;99.90;;;;;;5051592;28;20215;-66
2022/11/02 05:43:54;;;;;;;7.75;3.60;;;10.60;99.90;;;;;;5052824;28;20219;-66
2022/11/02 05:46:24;;;;;;;8.68;4.00;;;10.50;99.90;;;;;;5051040;28;20184;-66
2022/11/02 05:48:52;;;;;;;13.93;3.78;;;10.50;99.90;;;;;;5052461;28;20201;-66
2022/11/02 05:51:20;;;;;;;8.73;4.07;;;10.50;99.90;;;;;;5052953;28;20208;-66
2022/11/02 05:53:49;;;;;;;11.20;3.53;;;10.40;99.90;;;;;;5052675;28;20227;-66
2022/11/02 05:56:17;;;;;;;7.47;3.28;;;10.30;99.90;;;;;;5051697;28;20311;-66
2022/11/02 05:58:45;;;;;;;8.32;3.65;;;10.40;99.90;;;;;;5052969;28;20236;-66
2022/11/02 06:01:13;;;;;;;5.95;3.67;;;10.30;99.90;;;;;;5050827;28;20210;-66
2022/11/02 06:03:41;;;;;;;4.40;3.20;;;10.30;99.90;;;;;;5051235;28;20557;-66
2022/11/02 06:06:11;;;;;;;7.18;2.80;;;10.30;99.90;;;;;;5051280;28;20228;-66
2022/11/02 06:08:39;;;;;;;6.88;4.72;;;10.30;99.90;;;;;;5041877;28;20189;-66
2022/11/02 06:11:10;;;;;;;3.55;2.53;;;10.30;99.90;;;;;;5049569;28;20207;-66
2022/11/02 06:13:39;;;;;;;8.55;2.90;;;10.30;99.90;;;;;;5049191;28;20188;-66
2022/11/02 06:16:09;;;;;;;11.77;4.22;;;10.40;99.90;;;;;;5045079;28;20205;-66
2022/11/02 06:18:37;;;;;;;7.95;3.53;;;10.40;99.90;;;;;;5032840;28;20213;-66
2022/11/02 06:21:06;;;;;;;7.75;3.10;;;10.50;99.90;;;;;;5049887;28;20200;-66
2022/11/02 06:23:34;;;;;;;7.53;2.65;;;10.50;99.90;;;;;;5050430;28;20235;-66
2022/11/02 06:26:03;;;;;;;15.90;3.45;;;10.60;99.90;;;;;;5049257;28;20213;-66
2022/11/02 06:28:32;;;;;;;6.53;2.80;;;10.70;99.90;;;;;;5049140;28;20657;-66
2022/11/02 06:31:00;;;;;;;10.35;2.80;;;10.70;99.90;;;;;;5049657;28;20302;-67
2022/11/02 06:33:28;;;;;;;5.47;2.33;;;10.80;99.90;;;;;;5050318;28;20580;-66
2022/11/02 06:35:56;;;;;;;8.90;2.85;;;10.90;99.90;;;;;;5053328;28;20201;-66
2022/11/02 06:38:24;;;;;;;11.75;2.97;;;10.90;99.90;;;;;;5034744;28;20224;-66
2022/11/02 06:40:56;;;;;;;8.20;2.70;;;10.90;99.90;;;;;;5035863;28;20278;-66
2022/11/02 06:43:25;;;;;;;8.43;2.88;;;10.90;99.90;;;;;;5045549;28;20648;-66
2022/11/02 06:45:56;;;;;;;12.00;3.60;;;10.90;99.90;;;;;;5055123;28;20208;-66
2022/11/02 06:48:25;;;;;;;7.60;2.85;;;11.00;99.90;;;;;;5051144;28;20298;-65
2022/11/02 06:50:53;;;;;;;10.95;3.35;;;11.00;99.90;;;;;;5047294;28;21157;-63
2022/11/02 06:53:21;;;;;;;10.18;3.80;;;11.10;99.90;;;;;;5054773;28;20215;-63
2022/11/02 06:55:53;;;;;;;4.05;2.30;;;11.10;99.90;;;;;;5035956;28;20208;-66
2022/11/02 06:58:21;;;;;;;6.65;2.05;;;11.20;99.90;;;;;;5035096;28;20236;-67
2022/11/02 07:00:49;;;;;;;5.38;2.17;;;11.20;99.90;;;;;;5054114;28;20682;-66
2022/11/02 07:03:19;;;;;;;10.15;2.65;;;11.20;99.90;;;;;;5053591;28;20215;-67
2022/11/02 07:05:51;;;;;;;6.82;2.50;;;11.20;99.90;;;;;;5053934;28;20215;-66
2022/11/02 07:08:19;;;;;;;6.40;2.45;;;11.20;99.90;;;;;;5053286;28;20185;-68
2022/11/02 07:10:48;;;;;;;5.03;2.75;;;11.20;99.90;;;;;;5054053;28;20209;-66
2022/11/02 07:13:16;;;;;;;6.50;3.22;;;11.60;99.90;;;;;;5040328;28;20228;-66
2022/11/02 07:15:44;;;;;;;4.38;2.33;;;11.80;99.90;;;;;;5043430;28;20208;-65
2022/11/02 07:18:12;;;;;;;8.20;2.78;;;11.50;99.90;;;;;;5053781;28;20200;-64
2022/11/02 07:20:41;;;;;;;5.20;2.40;;;11.40;99.90;;;;;;5053242;28;20201;-65
2022/11/02 07:23:09;;;;;;;8.15;2.70;;;11.30;99.90;;;;;;5053917;28;20216;-65
2022/11/02 07:25:37;;;;;;;10.20;2.45;;;11.30;99.90;;;;;;5052948;28;20204;-65
2022/11/02 07:28:05;;;;;;;14.23;3.72;;;11.30;99.90;;;;;;5042261;28;20201;-66
2022/11/02 07:30:34;;;;;;;8.45;2.10;;;11.30;99.90;;;;;;5035002;28;20211;-66
2022/11/02 07:33:02;;;;;;;11.80;2.90;;;11.40;99.90;;;;;;5036757;28;20201;-66
2022/11/02 07:35:32;;;;;;;6.00;2.60;;;11.40;99.90;;;;;;5052443;28;20224;-65
2022/11/02 07:38:03;;;;;;;8.68;3.15;;;11.30;99.90;;;;;;5053897;28;20200;-65
2022/11/02 07:40:33;;;;;;;9.48;2.53;;;11.20;99.90;;;;;;5052436;28;20579;-65
2022/11/02 07:43:02;;;;;;;7.83;2.83;;;11.20;99.90;;;;;;5052231;28;20583;-66
2022/11/02 07:45:40;;;;;;;6.28;2.40;;;11.20;99.90;;;;;;5036025;28;20600;-65
2022/11/02 07:48:07;;;;;;;8.15;2.70;;;11.20;99.90;;;;;;5051997;28;20254;-66
2022/11/02 07:50:35;;;;;;;13.02;3.13;;;11.30;99.90;;;;;;5051110;28;20189;-65
2022/11/02 07:53:05;;;;;;;10.60;3.00;;;11.30;99.90;;;;;;5052504;28;20220;-66
2022/11/02 07:55:33;;;;;;;5.95;2.40;;;11.40;99.90;;;;;;5052351;28;20277;-66
2022/11/02 07:58:03;;;;;;;7.47;3.67;;;11.40;99.90;;;;;;5050469;28;20229;-66
2022/11/02 08:00:34;;;;;;;10.65;2.95;;;11.50;99.90;;;;;;5050200;28;20216;-66
2022/11/02 08:03:04;;;;;;;8.73;2.70;;;11.50;99.90;;;;;;5033872;28;20652;-66
2022/11/02 08:05:34;;;;;;;9.88;2.97;;;11.50;99.90;;;;;;5050840;28;20969;-67
2022/11/02 08:08:05;;;;;;;9.53;3.17;;;11.60;99.90;;;;;;5046044;28;20240;-66
2022/11/02 08:10:35;;;;;;;11.57;3.60;;;11.60;99.90;;;;;;5046641;28;20586;-67
2022/11/02 08:13:03;;;;;;;11.75;3.55;;;11.60;99.90;;;;;;5050659;28;20217;-67
2022/11/02 08:15:31;;;;;;;6.22;2.35;;;11.60;99.90;;;;;;5050735;28;20203;-67
2022/11/02 08:18:00;;;;;;;8.00;2.60;;;11.60;99.90;;;;;;5048052;28;20220;-67
2022/11/02 08:20:29;;;;;;;9.52;2.70;;;11.60;99.90;;;;;;5050244;28;20217;-66
2022/11/02 08:22:57;;;;;;;8.10;2.50;;;11.70;99.90;;;;;;5050699;28;20193;-66
2022/11/02 08:25:26;;;;;;;9.15;2.95;;;11.70;99.90;;;;;;5055468;28;20212;-67
2022/11/02 08:27:57;;;;;;;7.70;1.67;;;11.70;99.90;;;;;;5049521;28;20562;-66
2022/11/02 08:30:25;;;;;;;10.00;3.30;;;11.70;99.90;;;;;;5048197;28;21123;-66
2022/11/02 08:32:53;;;;;;;3.42;2.40;;;11.70;99.90;;;;;;5050439;28;20627;-67
2022/11/02 08:35:22;;;;;;;5.90;2.20;;;11.80;99.90;;;;;;5049894;28;20196;-66
2022/11/02 08:37:53;;;;;;;6.60;2.60;;;11.80;99.90;;;;;;5049282;28;20608;-66
2022/11/02 08:40:22;;;;;;;5.50;2.13;;;11.90;99.90;;;;;;5039570;28;20629;-66
2022/11/02 08:42:55;;;;;;;11.43;3.47;;;12.00;99.90;;;;;;5040099;28;21199;-66
2022/11/02 08:45:24;;;;;;;7.20;2.50;;;12.00;99.90;;;;;;5050334;28;20607;-66
2022/11/02 08:47:52;;;;;;;6.53;2.40;;;12.00;99.90;;;;;;5050772;28;20624;-66
2022/11/02 08:50:20;;;;;;;7.40;2.00;;;12.00;99.90;;;;;;5050966;28;20631;-67
2022/11/02 08:52:48;;;;;;;11.07;2.20;;;12.10;99.90;;;;;;5051053;28;20627;-66
2022/11/02 08:55:16;;;;;;;3.40;2.20;;;12.10;99.90;;;;;;5049381;28;20614;-67
2022/11/02 08:57:45;;;;;;;9.68;2.80;;;12.10;99.90;;;;;;5047438;28;20658;-67
2022/11/02 09:00:16;;;;;;;7.30;2.47;;;12.10;99.90;;;;;;5048432;28;20221;-67
2022/11/02 09:02:44;;;;;;;11.10;3.00;;;12.20;99.90;;;;;;5047993;28;21002;-67
2022/11/02 09:05:12;;;;;;;3.13;2.20;;;12.20;99.90;;;;;;5050085;28;20623;-67
2022/11/02 09:07:40;;;;;;;5.37;2.10;;;12.30;99.90;;;;;;5049878;28;20663;-67
2022/11/02 09:10:09;;;;;;;6.70;2.23;;;12.40;99.90;;;;;;5046183;28;20646;-66
2022/11/02 09:12:37;;;;;;;5.03;2.43;;;12.50;99.90;;;;;;5047521;28;20619;-67
2022/11/02 09:15:05;;;;;;;10.17;2.47;;;12.60;99.90;;;;;;5047673;28;20624;-67
2022/11/02 09:17:34;;;;;;;6.73;2.50;;;12.70;99.90;;;;;;5048069;28;20619;-67
2022/11/02 09:20:02;;;;;;;8.80;2.60;;;12.80;99.90;;;;;;5047163;28;20678;-67
2022/11/02 09:22:31;;;;;;;5.93;2.20;;;12.90;99.90;;;;;;5048236;28;21230;-67
2022/11/02 09:24:58;;;;;;;7.90;2.93;;;12.90;99.90;;;;;;5046970;28;21181;-67
2022/11/02 09:27:26;;;;;;;6.37;2.57;;;12.90;99.90;;;;;;5050056;28;20991;-66
2022/11/02 09:29:54;;;;;;;10.50;3.17;;;12.90;99.90;;;;;;5046496;28;20753;-67
2022/11/02 09:32:22;;;;;;;4.23;2.07;;;13.00;99.90;;;;;;5050862;28;21128;-67
2022/11/02 09:34:52;;;;;;;4.90;3.00;;;13.00;99.90;;;;;;5051124;28;20631;-67
2022/11/02 09:37:20;;;;;;;7.70;2.67;;;13.00;99.90;;;;;;5050385;28;20602;-66
2022/11/02 09:39:48;;;;;;;5.53;3.03;;;13.00;99.90;;;;;;5050775;28;21243;-67
2022/11/02 09:42:22;;;;;;;6.73;2.20;;;13.10;99.90;;;;;;5051192;28;20635;-67
2022/11/02 09:44:58;;;;;;;7.03;2.70;;;13.20;99.90;;;;;;5050794;28;20569;-68
2022/11/02 09:47:29;;;;;;;10.60;2.37;;;13.20;99.90;;;;;;5050432;28;20610;-66
2022/11/02 09:50:02;;;;;;;11.67;2.63;;;13.30;99.90;;;;;;5045180;28;21195;-67
2022/11/02 09:52:35;;;;;;;4.97;2.00;;;13.50;99.90;;;;;;5039492;28;20610;-67
2022/11/02 09:55:06;;;;;;;6.90;1.97;;;13.60;99.90;;;;;;5049868;28;20619;-67
2022/11/02 09:57:35;;;;;;;11.50;2.93;;;13.60;99.90;;;;;;5050584;28;20995;-66
2022/11/02 10:00:04;;;;;;;8.30;2.30;;;13.50;99.90;;;;;;5049928;28;20831;-65
2022/11/02 10:02:50;;;;;;;10.43;2.80;;;13.60;99.90;;;;;;5049727;28;20582;-66
2022/11/02 10:05:31;;;;;;;10.17;2.63;;;13.80;99.90;;;;;;5047595;28;20607;-66
2022/11/02 10:08:19;;;;;;;9.37;2.80;;;13.90;99.90;;;;;;5045661;28;20637;-66
2022/11/02 10:10:56;;;;;;;5.27;1.53;;;14.00;99.90;;;;;;5050021;28;20615;-66
2022/11/02 10:13:34;;;;;;;16.47;2.97;;;14.10;99.90;;;;;;5033799;28;20586;-66
2022/11/02 10:16:08;;;;;;;7.77;2.20;;;14.20;99.90;;;;;;5051700;28;21004;-66
2022/11/02 10:18:38;;;;;;;7.43;2.37;;;14.40;99.90;;;;;;5039626;28;20601;-66
2022/11/02 10:21:12;;;;;;;9.03;2.40;;;14.50;99.90;;;;;;5052849;28;20647;-66
2022/11/02 10:23:42;;;;;;;5.80;2.03;;;14.50;99.90;;;;;;5053828;28;20577;-66
2022/11/02 10:26:19;;;;;;;8.73;2.03;;;14.60;99.90;;;;;;5054007;28;21079;-66
2022/11/02 10:28:50;;;;;;;5.30;2.30;;;14.60;99.90;;;;;;5046886;28;20614;-66
2022/11/02 10:31:24;;;;;;;9.20;2.77;;;14.80;99.90;;;;;;5042949;28;21184;-66
2022/11/02 10:33:55;;;;;;;10.37;2.10;;;15.00;99.90;;;;;;5053840;28;20679;-66
2022/11/02 10:36:38;;;;;;;11.90;3.57;;;15.40;99.90;;;;;;5054951;28;21189;-66
2022/11/02 10:39:20;;;;;;;13.47;2.50;;;15.30;99.90;;;;;;5054217;28;20615;-65
2022/11/02 10:42:06;;;;;;;10.20;2.67;;;15.30;99.90;;;;;;5053946;28;20613;-66
2022/11/02 10:44:51;;;;;;;9.77;2.70;;;15.60;99.90;;;;;;5052755;28;20581;-66
2022/11/02 10:47:22;;;;;;;7.30;3.07;;;15.90;99.90;;;;;;5054387;28;20579;-66
2022/11/02 10:50:14;;;;;;;6.70;2.10;;;16.00;99.90;;;;;;5053514;28;21243;-65
2022/11/02 10:52:45;;;;;;;10.90;2.80;;;16.20;99.90;;;;;;5054478;28;20662;-65
2022/11/02 10:55:23;;;;;;;6.97;3.23;;;15.90;99.90;;;;;;5046185;28;20628;-66
2022/11/02 10:57:54;;;;;;;9.70;2.90;;;15.70;99.90;;;;;;5049578;28;20654;-66
2022/11/02 11:04:47;;;;;;;8.43;3.10;;;16.20;99.90;;;;;;5052234;28;21060;-67
2022/11/02 11:07:27;;;;;;;7.73;3.53;;;15.60;99.90;;;;;;5053545;28;20666;-67
2022/11/02 11:10:00;;;;;;;4.13;2.13;;;15.40;99.90;;;;;;5042213;28;20622;-67
2022/11/02 11:12:32;;;;;;;12.10;3.73;;;15.20;99.90;;;;;;5050177;28;20611;-67
2022/11/02 11:15:03;;;;;;;5.73;2.43;;;15.40;99.90;;;;;;5051013;28;20607;-67
2022/11/02 11:17:35;;;;;;;7.03;2.40;;;16.00;99.90;;;;;;5050523;28;20683;-65
2022/11/02 11:20:06;;;;;;;9.67;2.50;;;15.90;99.90;;;;;;5053733;28;20626;-64
2022/11/02 11:22:37;;;;;;;6.43;2.40;;;15.50;99.90;;;;;;5052358;28;20583;-65
2022/11/02 11:25:24;;;;;;;4.73;2.47;;;16.20;99.90;;;;;;5047777;28;20638;-67
2022/11/02 11:27:54;;;;;;;4.70;2.50;;;16.90;99.90;;;;;;5045864;28;20642;-65
2022/11/02 11:30:27;;;;;;;8.03;3.50;;;16.80;99.90;;;;;;5051177;28;20623;-67
2022/11/02 11:32:56;;;;;;;6.47;2.73;;;16.90;99.90;;;;;;5053112;28;20622;-66
2022/11/02 11:35:29;;;;;;;8.50;2.90;;;16.70;99.90;;;;;;5051529;28;20622;-66
2022/11/02 11:38:00;;;;;;;6.80;3.20;;;16.70;99.90;;;;;;5051210;28;20605;-66
2022/11/02 11:40:36;;;;;;;6.97;2.67;;;16.30;99.90;;;;;;5045745;28;20647;-65
2022/11/02 11:43:08;;;;;;;9.47;3.30;;;16.70;99.90;;;;;;5052508;28;20602;-65
2022/11/02 11:45:38;;;;;;;5.60;2.73;;;17.10;99.90;;;;;;5053004;28;20603;-66
2022/11/02 11:48:23;;;;;;;6.63;2.83;;;17.60;99.90;;;;;;5048272;28;20643;-66
2022/11/02 11:50:53;;;;;;;4.83;2.87;;;18.10;99.90;;;;;;5050431;28;20607;-66
2022/11/02 11:53:23;;;;;;;5.40;2.80;;;17.40;99.90;;;;;;5049908;28;20639;-66
2022/11/02 11:55:54;;;;;;;5.77;3.53;;;17.90;99.90;;;;;;5045064;28;20653;-66
2022/11/02 11:58:23;;;;;;;5.20;2.83;;;17.40;99.90;;;;;;5046540;28;20676;-67
2022/11/02 12:01:15;;;;;;;6.90;3.30;;;17.90;99.90;;;;;;5044631;28;20659;-66
2022/11/02 12:04:01;;;;;;;10.03;3.23;;;18.00;99.90;;;;;;5048149;28;20621;-66
2022/11/02 12:06:36;;;;;;;10.00;3.83;;;18.10;99.90;;;;;;5046946;28;20665;-66
2022/11/02 12:09:12;;;;;;;5.80;3.40;;;18.40;99.90;;;;;;5050555;28;20631;-66
2022/11/02 12:11:53;;;;;;;10.80;3.90;;;17.90;99.90;;;;;;5046522;28;20660;-66
2022/11/02 12:14:32;;;;;;;4.80;3.33;;;18.10;99.90;;;;;;5042568;28;20622;-66
2022/11/02 12:17:27;;;;;;;7.90;3.67;;;18.10;99.90;;;;;;5047437;28;20607;-66
2022/11/02 12:20:11;;;;;;;7.60;3.27;;;18.40;99.90;;;;;;5047752;28;20607;-66
2022/11/02 12:22:50;;;;;;;6.37;3.40;;;17.80;99.90;;;;;;5046542;28;21222;-66
2022/11/02 12:25:27;;;;;;;5.40;3.67;;;18.10;99.90;;;;;;5047208;28;20614;-66
2022/11/02 12:28:09;;;;;;;3.47;3.17;;;18.30;99.90;;;;;;5046683;28;21164;-66
2022/11/02 12:30:50;;;;;;;6.03;3.43;;;18.70;99.90;;;;;;5051854;28;20620;-66
2022/11/02 12:33:30;;;;;;;6.20;3.60;;;18.40;99.90;;;;;;5050465;28;20611;-66
2022/11/02 12:36:07;;;;;;;6.37;3.30;;;17.70;99.90;;;;;;5052404;28;20610;-66
2022/11/02 12:39:01;;;;;;;6.53;3.50;;;18.10;99.90;;;;;;5052105;28;20653;-66
2022/11/02 12:41:47;;;;;;;7.33;4.67;;;19.00;99.90;;;;;;5047971;28;20732;-66
2022/11/02 12:44:38;;;;;;;5.73;3.97;;;19.10;99.90;;;;;;5052745;28;20611;-66
2022/11/02 12:47:21;;;;;;;6.57;4.40;;;18.50;99.90;;;;;;5050944;28;20635;-66
2022/11/02 12:50:00;;;;;;;10.17;3.60;;;18.50;99.90;;;;;;5051990;28;20618;-66
2022/11/02 12:52:39;;;;;;;7.20;3.00;;;18.70;99.90;;;;;;5050737;28;20619;-66
2022/11/02 12:55:15;;;;;;;6.67;3.83;;;18.80;99.90;;;;;;5052804;28;20579;-66
2022/11/02 12:57:44;;;;;;;6.90;3.67;;;19.30;99.90;;;;;;5052306;28;20676;-66
2022/11/02 13:00:20;;;;;;;4.70;3.73;;;19.50;99.90;;;;;;5044714;28;20636;-67
2022/11/02 13:02:59;;;;;;;8.27;4.23;;;20.00;99.90;;;;;;5042434;28;20655;-67
2022/11/02 13:05:32;;;;;;;3.83;3.40;;;19.90;99.90;;;;;;5050432;28;21015;-67
2022/11/02 13:08:10;;;;;;;4.73;3.50;;;19.50;99.90;;;;;;5050505;28;20659;-67
2022/11/02 13:10:44;;;;;;;5.70;3.90;;;19.30;99.90;;;;;;5050448;28;20618;-67
2022/11/02 13:13:20;;;;;;;7.67;4.60;;;19.10;99.90;;;;;;5051505;28;20638;-67
2022/11/02 13:15:51;;;;;;;8.87;3.57;;;19.30;99.90;;;;;;5050813;28;20603;-67
2022/11/02 13:18:24;;;;;;;5.20;3.30;;;19.40;99.90;;;;;;5051698;28;20591;-66
2022/11/02 13:20:55;;;;;;;5.60;3.57;;;19.50;99.90;;;;;;5038752;28;20703;-66
2022/11/02 13:23:34;;;;;;;10.23;3.80;;;19.80;99.90;;;;;;5051553;28;20606;-66
2022/11/02 13:26:06;;;;;;;6.07;3.60;;;19.90;99.90;;;;;;5052607;28;20610;-66